Historyczne dane pomiarowe

Dodano dane terminowe – wersja testowa.

Dane z okresu 1951-2019

Wersja bazy: 1.34 [2019-03-16, lista zmian], aktualizacja planowana na 2019-04-15

Dane meteo z obszaru Polski uzyskane na podstawie danych udostępnionych przez Instytut Meteorologii i Gospodarki Wodnej – Państwowy Instytut Badawczy.

 

Wybierz Datę:    

       

TemperaturaWilgotnośćZachmurzenieWiatrCiśnienieWidzialnośćZjawiska
 Data    tng td wb rh cc ccl cl cm ch dir g1 g2 mslp ppp      
1999-07-17 00:00:00 12.4--- 10.8 11.590wxwxwx2wx--1018.4 996.0 0.0---wx
1999-07-17 01:00:00 11.2--- 10.3 10.794wxwx2wx--1018.8 996.3----wx
1999-07-17 02:00:00 10.5--- 9.6 10.094wxwx2wx--1019.0 996.5----wx
1999-07-17 03:00:00 9.8--- 9.2 9.596wxwx2wx--1019.2 996.6----wx
1999-07-17 04:00:00 11.0--- 10.5 10.796wxwx2wx--1019.2 996.7----wx
1999-07-17 05:00:00 13.8--- 12.8 13.294wxwx2wx--1019.2 996.9----wx
1999-07-17 06:00:00 15.9--- 12.7 14.081wxwx2wx--1018.9 996.8 0.0---wx
1999-07-17 07:00:00 18.0--- 12.1 14.568wxwxwx2wx--1018.8 996.9----wx
1999-07-17 08:00:00 19.1--- 11.6 14.762wxwxwx2wx--1019.1 997.2----wx
1999-07-17 09:00:00 19.8--- 10.1 14.253wxwxwx4wx--1019.0 997.2----wx
1999-07-17 10:00:00 20.1--- 10.4 14.554wxwxwx4wx--1019.0 997.2----wx
1999-07-17 11:00:00 20.6--- 10.4 14.752wxwxwx3wx--1019.0 997.2----wx
1999-07-17 12:00:00 20.8--- 10.3 14.751wxwxwx3wx--1018.9 997.2 0.0---wx
1999-07-17 13:00:00 21.0--- 10.3 14.851wxwxwx3wx--1018.9 997.2----wx
1999-07-17 14:00:00 22.3--- 9.2 14.843wxwxwx2wx--1018.8 997.2----wx
1999-07-17 15:00:00 21.0--- 10.3 14.851wxwxwx2wx--1018.9 997.2----wx
1999-07-17 16:00:00 20.6--- 10.7 14.853wxwxwx3wx--1019.0 997.2----wx
1999-07-17 17:00:00 20.7--- 11.0 15.054wxwxwx2wx--1018.9 997.2----wx
1999-07-17 18:00:00 20.0--- 11.5 15.058wxwxwx2wx--1019.0 997.2 0.0---wx
1999-07-17 19:00:00 18.1--- 12.2 14.668wxwxwx2wx--1019.3 997.4----wx
1999-07-17 20:00:00 16.0--- 12.6 14.080wxwxwx2wx--1019.6 997.5----wx
1999-07-17 21:00:00 15.6--- 12.5 13.882wxwxwx2wx--1019.6 997.5----wx
1999-07-17 22:00:00 15.1--- 13.3 14.089wxwx0wx--1020.1 997.9----wx
1999-07-17 23:00:00 13.2--- 11.1 12.087wxwx0wx--1020.4 998.1----wx

 

Źródłem pochodzenia danych jest Instytut Meteorologii i Gospodarki Wodnej – Państwowy Instytut Badawczy. Dane Instytutu Meteorologii i Gospodarki Wodnej – Państwowego Instytutu Badawczego zostały przetworzone.

Dane źródłowe można odnaleźć na stronie https://dane.imgw.pl